sensor_id;sensor_type;location;lat;lon;timestamp;P1;durP1;ratioP1;P2;durP2;ratioP2
9485;SDS011;4781;48.776;9.200;2023-04-07T00:01:12;10.48;;;6.83;;
9485;SDS011;4781;48.776;9.200;2023-04-07T00:03:40;10.78;;;7.20;;
9485;SDS011;4781;48.776;9.200;2023-04-07T00:06:11;9.00;;;6.55;;
9485;SDS011;4781;48.776;9.200;2023-04-07T00:08:39;9.93;;;7.08;;
9485;SDS011;4781;48.776;9.200;2023-04-07T00:11:07;10.15;;;6.50;;
9485;SDS011;4781;48.776;9.200;2023-04-07T00:13:36;10.45;;;6.87;;
9485;SDS011;4781;48.776;9.200;2023-04-07T00:16:04;9.08;;;6.60;;
9485;SDS011;4781;48.776;9.200;2023-04-07T00:18:33;9.58;;;7.45;;
9485;SDS011;4781;48.776;9.200;2023-04-07T00:21:01;9.78;;;6.55;;
9485;SDS011;4781;48.776;9.200;2023-04-07T00:23:29;8.80;;;6.15;;
9485;SDS011;4781;48.776;9.200;2023-04-07T00:25:58;9.25;;;6.10;;
9485;SDS011;4781;48.776;9.200;2023-04-07T00:28:26;8.58;;;6.10;;
9485;SDS011;4781;48.776;9.200;2023-04-07T00:30:55;9.50;;;6.50;;
9485;SDS011;4781;48.776;9.200;2023-04-07T00:33:23;12.03;;;6.17;;
9485;SDS011;4781;48.776;9.200;2023-04-07T00:35:51;8.23;;;6.08;;
9485;SDS011;4781;48.776;9.200;2023-04-07T00:38:21;8.48;;;5.60;;
9485;SDS011;4781;48.776;9.200;2023-04-07T00:40:55;9.20;;;5.78;;
9485;SDS011;4781;48.776;9.200;2023-04-07T00:43:26;9.23;;;5.80;;
9485;SDS011;4781;48.776;9.200;2023-04-07T00:45:54;8.70;;;5.90;;
9485;SDS011;4781;48.776;9.200;2023-04-07T00:48:23;8.30;;;5.55;;
9485;SDS011;4781;48.776;9.200;2023-04-07T00:50:51;11.08;;;6.25;;
9485;SDS011;4781;48.776;9.200;2023-04-07T00:53:20;9.38;;;6.85;;
9485;SDS011;4781;48.776;9.200;2023-04-07T00:55:48;9.48;;;5.75;;
9485;SDS011;4781;48.776;9.200;2023-04-07T00:58:17;9.45;;;6.58;;
9485;SDS011;4781;48.776;9.200;2023-04-07T01:00:50;9.73;;;5.83;;
9485;SDS011;4781;48.776;9.200;2023-04-07T01:03:32;8.73;;;6.30;;
9485;SDS011;4781;48.776;9.200;2023-04-07T01:06:07;8.70;;;6.17;;
9485;SDS011;4781;48.776;9.200;2023-04-07T01:08:41;8.85;;;6.12;;
9485;SDS011;4781;48.776;9.200;2023-04-07T01:11:31;10.08;;;6.47;;
9485;SDS011;4781;48.776;9.200;2023-04-07T01:14:08;10.25;;;5.92;;
9485;SDS011;4781;48.776;9.200;2023-04-07T01:16:41;9.13;;;6.33;;
9485;SDS011;4781;48.776;9.200;2023-04-07T01:22:08;9.25;;;5.97;;
9485;SDS011;4781;48.776;9.200;2023-04-07T01:30:47;9.88;;;6.55;;
9485;SDS011;4781;48.776;9.200;2023-04-07T01:33:17;9.08;;;6.25;;
9485;SDS011;4781;48.776;9.200;2023-04-07T01:35:47;10.82;;;6.60;;
9485;SDS011;4781;48.776;9.200;2023-04-07T01:38:17;10.23;;;6.37;;
9485;SDS011;4781;48.776;9.200;2023-04-07T01:40:46;11.00;;;6.05;;
9485;SDS011;4781;48.776;9.200;2023-04-07T01:43:15;9.03;;;6.62;;
9485;SDS011;4781;48.776;9.200;2023-04-07T01:45:45;9.28;;;6.08;;
9485;SDS011;4781;48.776;9.200;2023-04-07T01:48:14;9.10;;;6.53;;
9485;SDS011;4781;48.776;9.200;2023-04-07T01:50:43;10.55;;;6.40;;
9485;SDS011;4781;48.776;9.200;2023-04-07T01:53:12;10.85;;;7.05;;
9485;SDS011;4781;48.776;9.200;2023-04-07T01:55:42;9.15;;;6.28;;
9485;SDS011;4781;48.776;9.200;2023-04-07T01:58:11;9.50;;;6.67;;
9485;SDS011;4781;48.776;9.200;2023-04-07T02:00:40;12.33;;;7.25;;
9485;SDS011;4781;48.776;9.200;2023-04-07T02:03:10;9.05;;;6.60;;
9485;SDS011;4781;48.776;9.200;2023-04-07T02:05:42;10.45;;;7.03;;
9485;SDS011;4781;48.776;9.200;2023-04-07T02:08:11;9.20;;;7.10;;
9485;SDS011;4781;48.776;9.200;2023-04-07T02:10:42;12.33;;;6.85;;
9485;SDS011;4781;48.776;9.200;2023-04-07T02:13:15;10.18;;;7.25;;
9485;SDS011;4781;48.776;9.200;2023-04-07T02:15:46;11.63;;;7.15;;
9485;SDS011;4781;48.776;9.200;2023-04-07T02:18:16;12.13;;;7.37;;
9485;SDS011;4781;48.776;9.200;2023-04-07T02:20:46;8.88;;;6.87;;
9485;SDS011;4781;48.776;9.200;2023-04-07T02:23:15;12.53;;;7.40;;
9485;SDS011;4781;48.776;9.200;2023-04-07T02:25:44;9.53;;;7.03;;
9485;SDS011;4781;48.776;9.200;2023-04-07T02:28:12;12.93;;;7.50;;
9485;SDS011;4781;48.776;9.200;2023-04-07T02:30:41;10.58;;;7.17;;
9485;SDS011;4781;48.776;9.200;2023-04-07T02:33:09;10.88;;;7.45;;
9485;SDS011;4781;48.776;9.200;2023-04-07T02:35:37;10.05;;;6.83;;
9485;SDS011;4781;48.776;9.200;2023-04-07T02:38:06;11.93;;;7.53;;
9485;SDS011;4781;48.776;9.200;2023-04-07T02:40:34;11.18;;;7.10;;
9485;SDS011;4781;48.776;9.200;2023-04-07T02:43:03;10.58;;;7.53;;
9485;SDS011;4781;48.776;9.200;2023-04-07T02:45:31;12.03;;;7.17;;
9485;SDS011;4781;48.776;9.200;2023-04-07T02:47:59;10.58;;;7.50;;
9485;SDS011;4781;48.776;9.200;2023-04-07T02:50:28;10.45;;;7.37;;
9485;SDS011;4781;48.776;9.200;2023-04-07T02:52:56;10.08;;;7.22;;
9485;SDS011;4781;48.776;9.200;2023-04-07T02:55:25;9.45;;;6.75;;
9485;SDS011;4781;48.776;9.200;2023-04-07T02:57:53;9.80;;;7.33;;
9485;SDS011;4781;48.776;9.200;2023-04-07T03:00:21;13.40;;;8.83;;
9485;SDS011;4781;48.776;9.200;2023-04-07T03:02:50;10.93;;;7.67;;
9485;SDS011;4781;48.776;9.200;2023-04-07T03:05:19;10.78;;;6.92;;
9485;SDS011;4781;48.776;9.200;2023-04-07T03:10:22;11.73;;;7.75;;
9485;SDS011;4781;48.776;9.200;2023-04-07T03:12:51;10.00;;;7.35;;
9485;SDS011;4781;48.776;9.200;2023-04-07T03:15:19;10.30;;;7.62;;
9485;SDS011;4781;48.776;9.200;2023-04-07T03:17:47;10.50;;;8.13;;
9485;SDS011;4781;48.776;9.200;2023-04-07T03:20:16;10.18;;;7.37;;
9485;SDS011;4781;48.776;9.200;2023-04-07T03:22:44;12.18;;;7.62;;
9485;SDS011;4781;48.776;9.200;2023-04-07T03:25:13;11.25;;;7.42;;
9485;SDS011;4781;48.776;9.200;2023-04-07T03:27:41;11.65;;;7.90;;
9485;SDS011;4781;48.776;9.200;2023-04-07T03:30:10;11.40;;;7.53;;
9485;SDS011;4781;48.776;9.200;2023-04-07T03:32:39;13.22;;;8.08;;
9485;SDS011;4781;48.776;9.200;2023-04-07T03:35:07;9.40;;;7.20;;
9485;SDS011;4781;48.776;9.200;2023-04-07T03:37:36;11.00;;;7.53;;
9485;SDS011;4781;48.776;9.200;2023-04-07T03:40:04;11.57;;;8.23;;
9485;SDS011;4781;48.776;9.200;2023-04-07T03:42:54;10.72;;;7.75;;
9485;SDS011;4781;48.776;9.200;2023-04-07T03:45:22;12.28;;;7.97;;
9485;SDS011;4781;48.776;9.200;2023-04-07T03:47:51;12.20;;;8.50;;
9485;SDS011;4781;48.776;9.200;2023-04-07T03:50:19;11.57;;;8.35;;
9485;SDS011;4781;48.776;9.200;2023-04-07T03:52:48;13.43;;;7.85;;
9485;SDS011;4781;48.776;9.200;2023-04-07T03:55:16;10.72;;;7.50;;
9485;SDS011;4781;48.776;9.200;2023-04-07T03:57:45;12.07;;;7.87;;
9485;SDS011;4781;48.776;9.200;2023-04-07T04:00:13;12.70;;;8.10;;
9485;SDS011;4781;48.776;9.200;2023-04-07T04:02:42;10.75;;;7.62;;
9485;SDS011;4781;48.776;9.200;2023-04-07T04:05:10;12.73;;;8.28;;
9485;SDS011;4781;48.776;9.200;2023-04-07T04:07:38;11.45;;;8.13;;
9485;SDS011;4781;48.776;9.200;2023-04-07T04:12:45;11.50;;;7.80;;
9485;SDS011;4781;48.776;9.200;2023-04-07T04:15:14;11.18;;;7.33;;
9485;SDS011;4781;48.776;9.200;2023-04-07T04:17:43;11.63;;;8.20;;
9485;SDS011;4781;48.776;9.200;2023-04-07T04:20:11;11.15;;;8.15;;
9485;SDS011;4781;48.776;9.200;2023-04-07T04:22:40;11.10;;;7.87;;
9485;SDS011;4781;48.776;9.200;2023-04-07T04:25:08;13.58;;;8.38;;
9485;SDS011;4781;48.776;9.200;2023-04-07T04:27:36;10.63;;;7.72;;
9485;SDS011;4781;48.776;9.200;2023-04-07T04:30:05;10.65;;;7.78;;
9485;SDS011;4781;48.776;9.200;2023-04-07T04:32:34;12.20;;;8.38;;
9485;SDS011;4781;48.776;9.200;2023-04-07T04:35:03;11.83;;;8.55;;
9485;SDS011;4781;48.776;9.200;2023-04-07T04:37:32;12.98;;;8.25;;
9485;SDS011;4781;48.776;9.200;2023-04-07T04:40:00;12.85;;;8.45;;
9485;SDS011;4781;48.776;9.200;2023-04-07T04:42:29;11.40;;;7.95;;
9485;SDS011;4781;48.776;9.200;2023-04-07T04:44:58;12.53;;;8.13;;
9485;SDS011;4781;48.776;9.200;2023-04-07T04:47:27;11.08;;;7.75;;
9485;SDS011;4781;48.776;9.200;2023-04-07T04:49:55;11.70;;;8.50;;
9485;SDS011;4781;48.776;9.200;2023-04-07T04:52:23;12.37;;;8.60;;
9485;SDS011;4781;48.776;9.200;2023-04-07T04:54:52;12.95;;;8.30;;
9485;SDS011;4781;48.776;9.200;2023-04-07T04:57:21;11.90;;;8.15;;
9485;SDS011;4781;48.776;9.200;2023-04-07T04:59:49;13.38;;;8.60;;
9485;SDS011;4781;48.776;9.200;2023-04-07T05:02:17;14.47;;;8.98;;
9485;SDS011;4781;48.776;9.200;2023-04-07T05:04:46;13.45;;;8.90;;
9485;SDS011;4781;48.776;9.200;2023-04-07T05:07:15;12.28;;;8.25;;
9485;SDS011;4781;48.776;9.200;2023-04-07T05:09:43;11.22;;;8.08;;
9485;SDS011;4781;48.776;9.200;2023-04-07T05:12:12;13.22;;;8.60;;
9485;SDS011;4781;48.776;9.200;2023-04-07T05:14:41;12.25;;;8.23;;
9485;SDS011;4781;48.776;9.200;2023-04-07T05:17:09;10.93;;;8.13;;
9485;SDS011;4781;48.776;9.200;2023-04-07T05:19:37;11.28;;;8.20;;
9485;SDS011;4781;48.776;9.200;2023-04-07T05:22:06;10.68;;;8.08;;
9485;SDS011;4781;48.776;9.200;2023-04-07T05:24:34;11.22;;;7.65;;
9485;SDS011;4781;48.776;9.200;2023-04-07T05:27:02;12.63;;;8.13;;
9485;SDS011;4781;48.776;9.200;2023-04-07T05:29:31;12.28;;;8.48;;
9485;SDS011;4781;48.776;9.200;2023-04-07T05:31:59;11.00;;;7.72;;
9485;SDS011;4781;48.776;9.200;2023-04-07T05:34:28;13.08;;;8.15;;
9485;SDS011;4781;48.776;9.200;2023-04-07T05:36:56;12.25;;;7.90;;
9485;SDS011;4781;48.776;9.200;2023-04-07T05:39:25;10.93;;;7.85;;
9485;SDS011;4781;48.776;9.200;2023-04-07T05:41:53;11.93;;;7.92;;
9485;SDS011;4781;48.776;9.200;2023-04-07T05:44:22;11.10;;;7.65;;
9485;SDS011;4781;48.776;9.200;2023-04-07T05:46:51;11.60;;;7.55;;
9485;SDS011;4781;48.776;9.200;2023-04-07T05:49:19;12.63;;;7.70;;
9485;SDS011;4781;48.776;9.200;2023-04-07T05:51:47;11.33;;;8.05;;
9485;SDS011;4781;48.776;9.200;2023-04-07T05:54:16;16.67;;;8.68;;
9485;SDS011;4781;48.776;9.200;2023-04-07T05:56:44;12.68;;;8.23;;
9485;SDS011;4781;48.776;9.200;2023-04-07T05:59:13;12.15;;;8.63;;
9485;SDS011;4781;48.776;9.200;2023-04-07T06:01:41;12.80;;;8.95;;
9485;SDS011;4781;48.776;9.200;2023-04-07T06:04:10;11.45;;;8.60;;
9485;SDS011;4781;48.776;9.200;2023-04-07T06:06:38;12.45;;;8.93;;
9485;SDS011;4781;48.776;9.200;2023-04-07T06:09:06;10.93;;;8.28;;
9485;SDS011;4781;48.776;9.200;2023-04-07T06:11:35;11.97;;;9.00;;
9485;SDS011;4781;48.776;9.200;2023-04-07T06:14:05;13.28;;;9.10;;
9485;SDS011;4781;48.776;9.200;2023-04-07T06:16:33;13.55;;;8.43;;
9485;SDS011;4781;48.776;9.200;2023-04-07T06:19:02;12.03;;;8.78;;
9485;SDS011;4781;48.776;9.200;2023-04-07T06:21:32;12.20;;;8.45;;
9485;SDS011;4781;48.776;9.200;2023-04-07T06:24:00;12.07;;;8.40;;
9485;SDS011;4781;48.776;9.200;2023-04-07T06:26:29;13.22;;;9.03;;
9485;SDS011;4781;48.776;9.200;2023-04-07T06:28:57;13.48;;;8.93;;
9485;SDS011;4781;48.776;9.200;2023-04-07T06:31:26;11.55;;;8.70;;
9485;SDS011;4781;48.776;9.200;2023-04-07T06:33:55;11.43;;;8.33;;
9485;SDS011;4781;48.776;9.200;2023-04-07T06:36:23;13.45;;;8.98;;
9485;SDS011;4781;48.776;9.200;2023-04-07T06:38:52;12.98;;;8.80;;
9485;SDS011;4781;48.776;9.200;2023-04-07T06:41:20;12.55;;;8.90;;
9485;SDS011;4781;48.776;9.200;2023-04-07T06:43:49;12.25;;;9.00;;
9485;SDS011;4781;48.776;9.200;2023-04-07T06:46:18;13.70;;;9.13;;
9485;SDS011;4781;48.776;9.200;2023-04-07T06:48:46;11.75;;;8.93;;
9485;SDS011;4781;48.776;9.200;2023-04-07T06:51:15;14.40;;;9.63;;
9485;SDS011;4781;48.776;9.200;2023-04-07T06:53:43;12.75;;;9.13;;
9485;SDS011;4781;48.776;9.200;2023-04-07T06:56:13;11.15;;;8.68;;
9485;SDS011;4781;48.776;9.200;2023-04-07T06:58:41;13.65;;;8.88;;
9485;SDS011;4781;48.776;9.200;2023-04-07T07:01:10;10.68;;;8.30;;
9485;SDS011;4781;48.776;9.200;2023-04-07T07:03:38;11.90;;;8.35;;
9485;SDS011;4781;48.776;9.200;2023-04-07T07:06:07;12.23;;;9.20;;
9485;SDS011;4781;48.776;9.200;2023-04-07T07:08:35;11.10;;;8.60;;
9485;SDS011;4781;48.776;9.200;2023-04-07T07:11:04;13.88;;;8.80;;
9485;SDS011;4781;48.776;9.200;2023-04-07T07:13:32;11.10;;;8.35;;
9485;SDS011;4781;48.776;9.200;2023-04-07T07:16:01;11.65;;;8.63;;
9485;SDS011;4781;48.776;9.200;2023-04-07T07:18:29;12.80;;;9.38;;
9485;SDS011;4781;48.776;9.200;2023-04-07T07:20:57;12.45;;;8.73;;
9485;SDS011;4781;48.776;9.200;2023-04-07T07:23:26;12.98;;;8.60;;
9485;SDS011;4781;48.776;9.200;2023-04-07T07:25:54;15.98;;;9.25;;
9485;SDS011;4781;48.776;9.200;2023-04-07T07:28:23;10.72;;;8.18;;
9485;SDS011;4781;48.776;9.200;2023-04-07T07:30:51;10.35;;;7.58;;
9485;SDS011;4781;48.776;9.200;2023-04-07T07:33:20;12.47;;;8.48;;
9485;SDS011;4781;48.776;9.200;2023-04-07T07:35:48;11.93;;;8.83;;
9485;SDS011;4781;48.776;9.200;2023-04-07T07:38:17;9.18;;;7.40;;
9485;SDS011;4781;48.776;9.200;2023-04-07T07:40:46;11.53;;;7.70;;
9485;SDS011;4781;48.776;9.200;2023-04-07T07:43:14;14.80;;;8.55;;
9485;SDS011;4781;48.776;9.200;2023-04-07T07:45:42;10.45;;;8.35;;
9485;SDS011;4781;48.776;9.200;2023-04-07T07:48:11;11.28;;;8.33;;
9485;SDS011;4781;48.776;9.200;2023-04-07T07:50:39;11.28;;;8.03;;
9485;SDS011;4781;48.776;9.200;2023-04-07T07:53:09;12.05;;;8.83;;
9485;SDS011;4781;48.776;9.200;2023-04-07T07:55:37;11.38;;;8.15;;
9485;SDS011;4781;48.776;9.200;2023-04-07T07:58:06;12.45;;;7.75;;
9485;SDS011;4781;48.776;9.200;2023-04-07T08:00:34;13.38;;;8.70;;
9485;SDS011;4781;48.776;9.200;2023-04-07T08:03:03;10.90;;;7.62;;
9485;SDS011;4781;48.776;9.200;2023-04-07T08:05:31;13.30;;;7.97;;
9485;SDS011;4781;48.776;9.200;2023-04-07T08:08:00;11.43;;;7.67;;
9485;SDS011;4781;48.776;9.200;2023-04-07T08:10:28;10.90;;;8.20;;
9485;SDS011;4781;48.776;9.200;2023-04-07T08:12:56;13.88;;;8.60;;
9485;SDS011;4781;48.776;9.200;2023-04-07T08:15:25;12.82;;;9.30;;
9485;SDS011;4781;48.776;9.200;2023-04-07T08:17:53;12.40;;;8.18;;
9485;SDS011;4781;48.776;9.200;2023-04-07T08:20:22;12.50;;;8.53;;
9485;SDS011;4781;48.776;9.200;2023-04-07T08:22:51;10.43;;;7.75;;
9485;SDS011;4781;48.776;9.200;2023-04-07T08:25:19;11.90;;;8.63;;
9485;SDS011;4781;48.776;9.200;2023-04-07T08:27:48;12.93;;;7.92;;
9485;SDS011;4781;48.776;9.200;2023-04-07T08:30:16;12.70;;;7.63;;
9485;SDS011;4781;48.776;9.200;2023-04-07T08:32:46;10.98;;;7.03;;
9485;SDS011;4781;48.776;9.200;2023-04-07T08:35:15;10.40;;;5.97;;
9485;SDS011;4781;48.776;9.200;2023-04-07T08:37:43;8.13;;;5.90;;
9485;SDS011;4781;48.776;9.200;2023-04-07T08:40:12;11.20;;;6.60;;
9485;SDS011;4781;48.776;9.200;2023-04-07T08:42:42;9.05;;;6.67;;
9485;SDS011;4781;48.776;9.200;2023-04-07T08:45:13;9.48;;;6.70;;
9485;SDS011;4781;48.776;9.200;2023-04-07T08:47:45;7.85;;;5.50;;
9485;SDS011;4781;48.776;9.200;2023-04-07T08:50:15;8.53;;;6.28;;
9485;SDS011;4781;48.776;9.200;2023-04-07T08:55:20;10.18;;;6.70;;
9485;SDS011;4781;48.776;9.200;2023-04-07T08:57:49;9.65;;;6.03;;
9485;SDS011;4781;48.776;9.200;2023-04-07T09:00:19;9.30;;;6.20;;
9485;SDS011;4781;48.776;9.200;2023-04-07T09:02:48;9.33;;;6.25;;
9485;SDS011;4781;48.776;9.200;2023-04-07T09:05:17;7.47;;;5.55;;
9485;SDS011;4781;48.776;9.200;2023-04-07T09:07:46;8.80;;;5.87;;
9485;SDS011;4781;48.776;9.200;2023-04-07T09:10:14;8.70;;;5.87;;
9485;SDS011;4781;48.776;9.200;2023-04-07T09:12:43;10.13;;;6.40;;
9485;SDS011;4781;48.776;9.200;2023-04-07T09:15:11;7.10;;;5.62;;
9485;SDS011;4781;48.776;9.200;2023-04-07T09:17:40;10.25;;;5.53;;
9485;SDS011;4781;48.776;9.200;2023-04-07T09:20:10;9.65;;;6.95;;
9485;SDS011;4781;48.776;9.200;2023-04-07T09:22:42;7.50;;;5.80;;
9485;SDS011;4781;48.776;9.200;2023-04-07T09:25:14;11.00;;;6.62;;
9485;SDS011;4781;48.776;9.200;2023-04-07T09:27:55;10.98;;;6.22;;
9485;SDS011;4781;48.776;9.200;2023-04-07T09:30:31;10.15;;;5.53;;
9485;SDS011;4781;48.776;9.200;2023-04-07T09:33:00;9.23;;;5.72;;
9485;SDS011;4781;48.776;9.200;2023-04-07T09:35:29;8.98;;;5.00;;
9485;SDS011;4781;48.776;9.200;2023-04-07T09:38:01;12.20;;;5.45;;
9485;SDS011;4781;48.776;9.200;2023-04-07T09:40:31;8.15;;;5.00;;
9485;SDS011;4781;48.776;9.200;2023-04-07T09:43:01;8.25;;;5.58;;
9485;SDS011;4781;48.776;9.200;2023-04-07T09:45:32;10.32;;;6.30;;
9485;SDS011;4781;48.776;9.200;2023-04-07T09:48:05;10.63;;;6.15;;
9485;SDS011;4781;48.776;9.200;2023-04-07T09:50:37;9.75;;;6.10;;
9485;SDS011;4781;48.776;9.200;2023-04-07T09:53:06;8.80;;;5.55;;
9485;SDS011;4781;48.776;9.200;2023-04-07T09:55:35;9.23;;;5.35;;
9485;SDS011;4781;48.776;9.200;2023-04-07T09:58:07;8.53;;;5.40;;
9485;SDS011;4781;48.776;9.200;2023-04-07T10:00:40;12.45;;;5.95;;
9485;SDS011;4781;48.776;9.200;2023-04-07T10:03:09;8.95;;;5.50;;
9485;SDS011;4781;48.776;9.200;2023-04-07T10:05:38;9.23;;;5.72;;
9485;SDS011;4781;48.776;9.200;2023-04-07T10:08:08;9.08;;;5.50;;
9485;SDS011;4781;48.776;9.200;2023-04-07T10:10:38;10.93;;;5.42;;
9485;SDS011;4781;48.776;9.200;2023-04-07T10:13:08;7.55;;;5.25;;
9485;SDS011;4781;48.776;9.200;2023-04-07T10:15:37;8.08;;;5.83;;
9485;SDS011;4781;48.776;9.200;2023-04-07T10:18:06;9.20;;;5.58;;
9485;SDS011;4781;48.776;9.200;2023-04-07T10:20:36;10.20;;;5.62;;
9485;SDS011;4781;48.776;9.200;2023-04-07T10:23:12;7.65;;;5.40;;
9485;SDS011;4781;48.776;9.200;2023-04-07T10:25:47;9.70;;;5.85;;
9485;SDS011;4781;48.776;9.200;2023-04-07T10:28:18;7.45;;;5.33;;
9485;SDS011;4781;48.776;9.200;2023-04-07T10:30:49;8.83;;;5.33;;
9485;SDS011;4781;48.776;9.200;2023-04-07T10:36:17;8.03;;;5.50;;
9485;SDS011;4781;48.776;9.200;2023-04-07T10:39:34;8.50;;;5.25;;
9485;SDS011;4781;48.776;9.200;2023-04-07T10:41:39;10.63;;;5.62;;
9485;SDS011;4781;48.776;9.200;2023-04-07T10:44:09;8.93;;;5.30;;
9485;SDS011;4781;48.776;9.200;2023-04-07T10:47:01;9.35;;;5.05;;
9485;SDS011;4781;48.776;9.200;2023-04-07T10:49:32;13.28;;;6.22;;
9485;SDS011;4781;48.776;9.200;2023-04-07T10:54:56;8.45;;;5.08;;
9485;SDS011;4781;48.776;9.200;2023-04-07T10:57:37;10.20;;;5.83;;
9485;SDS011;4781;48.776;9.200;2023-04-07T11:02:42;8.48;;;5.40;;
9485;SDS011;4781;48.776;9.200;2023-04-07T11:05:20;9.15;;;5.47;;
9485;SDS011;4781;48.776;9.200;2023-04-07T11:07:51;9.50;;;5.20;;
9485;SDS011;4781;48.776;9.200;2023-04-07T11:10:22;8.53;;;5.42;;
9485;SDS011;4781;48.776;9.200;2023-04-07T11:12:57;8.85;;;5.12;;
9485;SDS011;4781;48.776;9.200;2023-04-07T11:15:28;8.50;;;4.62;;
9485;SDS011;4781;48.776;9.200;2023-04-07T11:18:16;8.33;;;4.97;;
9485;SDS011;4781;48.776;9.200;2023-04-07T11:20:51;9.03;;;5.78;;
9485;SDS011;4781;48.776;9.200;2023-04-07T11:23:23;8.30;;;4.62;;
9485;SDS011;4781;48.776;9.200;2023-04-07T11:25:54;8.63;;;4.10;;
9485;SDS011;4781;48.776;9.200;2023-04-07T11:28:29;10.68;;;4.42;;
9485;SDS011;4781;48.776;9.200;2023-04-07T11:30:57;8.35;;;4.50;;
9485;SDS011;4781;48.776;9.200;2023-04-07T11:33:27;6.22;;;3.98;;
9485;SDS011;4781;48.776;9.200;2023-04-07T11:35:59;8.48;;;4.53;;
9485;SDS011;4781;48.776;9.200;2023-04-07T11:38:29;8.23;;;4.72;;
9485;SDS011;4781;48.776;9.200;2023-04-07T11:41:09;11.63;;;4.40;;
9485;SDS011;4781;48.776;9.200;2023-04-07T11:43:40;7.42;;;4.33;;
9485;SDS011;4781;48.776;9.200;2023-04-07T11:46:09;8.08;;;4.33;;
9485;SDS011;4781;48.776;9.200;2023-04-07T11:48:43;9.23;;;4.95;;
9485;SDS011;4781;48.776;9.200;2023-04-07T11:51:16;8.38;;;4.70;;
9485;SDS011;4781;48.776;9.200;2023-04-07T11:53:55;9.03;;;4.37;;
9485;SDS011;4781;48.776;9.200;2023-04-07T11:56:25;7.87;;;5.00;;
9485;SDS011;4781;48.776;9.200;2023-04-07T11:58:55;8.53;;;4.97;;
9485;SDS011;4781;48.776;9.200;2023-04-07T12:01:24;7.65;;;4.97;;
9485;SDS011;4781;48.776;9.200;2023-04-07T12:04:10;8.58;;;4.80;;
9485;SDS011;4781;48.776;9.200;2023-04-07T12:06:40;8.50;;;4.92;;
9485;SDS011;4781;48.776;9.200;2023-04-07T12:09:26;10.80;;;5.20;;
9485;SDS011;4781;48.776;9.200;2023-04-07T12:11:57;8.65;;;5.60;;
9485;SDS011;4781;48.776;9.200;2023-04-07T12:14:26;8.88;;;5.42;;
9485;SDS011;4781;48.776;9.200;2023-04-07T12:16:55;8.45;;;5.30;;
9485;SDS011;4781;48.776;9.200;2023-04-07T12:19:24;8.58;;;5.47;;
9485;SDS011;4781;48.776;9.200;2023-04-07T12:21:54;10.45;;;4.78;;
9485;SDS011;4781;48.776;9.200;2023-04-07T12:24:23;10.05;;;4.83;;
9485;SDS011;4781;48.776;9.200;2023-04-07T12:26:52;7.37;;;3.80;;
9485;SDS011;4781;48.776;9.200;2023-04-07T12:29:21;8.03;;;4.58;;
9485;SDS011;4781;48.776;9.200;2023-04-07T12:31:49;8.48;;;4.42;;
9485;SDS011;4781;48.776;9.200;2023-04-07T12:34:17;7.75;;;4.53;;
9485;SDS011;4781;48.776;9.200;2023-04-07T12:36:46;7.17;;;3.85;;
9485;SDS011;4781;48.776;9.200;2023-04-07T12:39:15;8.08;;;4.65;;
9485;SDS011;4781;48.776;9.200;2023-04-07T12:41:43;7.62;;;4.90;;
9485;SDS011;4781;48.776;9.200;2023-04-07T12:44:14;6.50;;;4.20;;
9485;SDS011;4781;48.776;9.200;2023-04-07T12:46:42;6.12;;;4.08;;
9485;SDS011;4781;48.776;9.200;2023-04-07T12:49:11;9.40;;;4.12;;
9485;SDS011;4781;48.776;9.200;2023-04-07T12:51:41;7.25;;;3.33;;
9485;SDS011;4781;48.776;9.200;2023-04-07T12:54:10;6.35;;;3.40;;
9485;SDS011;4781;48.776;9.200;2023-04-07T12:56:39;4.70;;;2.80;;
9485;SDS011;4781;48.776;9.200;2023-04-07T12:59:08;8.03;;;3.30;;
9485;SDS011;4781;48.776;9.200;2023-04-07T13:01:36;6.87;;;3.30;;
9485;SDS011;4781;48.776;9.200;2023-04-07T13:04:05;4.75;;;2.65;;
9485;SDS011;4781;48.776;9.200;2023-04-07T13:06:33;4.75;;;2.85;;
9485;SDS011;4781;48.776;9.200;2023-04-07T13:09:02;4.50;;;2.40;;
9485;SDS011;4781;48.776;9.200;2023-04-07T13:11:30;6.47;;;2.50;;
9485;SDS011;4781;48.776;9.200;2023-04-07T13:13:58;4.37;;;1.85;;
9485;SDS011;4781;48.776;9.200;2023-04-07T13:16:27;5.20;;;2.00;;
9485;SDS011;4781;48.776;9.200;2023-04-07T13:18:55;4.78;;;2.00;;
9485;SDS011;4781;48.776;9.200;2023-04-07T13:21:24;3.10;;;1.45;;
9485;SDS011;4781;48.776;9.200;2023-04-07T13:23:52;4.25;;;1.80;;
9485;SDS011;4781;48.776;9.200;2023-04-07T13:26:21;6.08;;;1.80;;
9485;SDS011;4781;48.776;9.200;2023-04-07T13:28:50;3.98;;;1.75;;
9485;SDS011;4781;48.776;9.200;2023-04-07T13:31:18;4.62;;;1.82;;
9485;SDS011;4781;48.776;9.200;2023-04-07T13:33:50;5.62;;;2.20;;
9485;SDS011;4781;48.776;9.200;2023-04-07T13:36:19;6.08;;;2.45;;
9485;SDS011;4781;48.776;9.200;2023-04-07T13:38:47;4.10;;;2.33;;
9485;SDS011;4781;48.776;9.200;2023-04-07T13:41:16;5.42;;;2.65;;
9485;SDS011;4781;48.776;9.200;2023-04-07T13:43:44;5.03;;;2.20;;
9485;SDS011;4781;48.776;9.200;2023-04-07T13:46:12;5.75;;;2.83;;
9485;SDS011;4781;48.776;9.200;2023-04-07T13:48:45;3.85;;;2.30;;
9485;SDS011;4781;48.776;9.200;2023-04-07T13:51:14;5.70;;;2.00;;
9485;SDS011;4781;48.776;9.200;2023-04-07T13:53:42;3.05;;;1.77;;
9485;SDS011;4781;48.776;9.200;2023-04-07T13:56:12;6.10;;;2.40;;
9485;SDS011;4781;48.776;9.200;2023-04-07T13:58:40;6.10;;;2.10;;
9485;SDS011;4781;48.776;9.200;2023-04-07T14:01:09;5.65;;;2.87;;
9485;SDS011;4781;48.776;9.200;2023-04-07T14:03:37;4.45;;;2.30;;
9485;SDS011;4781;48.776;9.200;2023-04-07T14:06:06;6.58;;;2.55;;
9485;SDS011;4781;48.776;9.200;2023-04-07T14:08:35;4.65;;;2.77;;
9485;SDS011;4781;48.776;9.200;2023-04-07T14:11:03;5.08;;;2.37;;
9485;SDS011;4781;48.776;9.200;2023-04-07T14:13:31;6.72;;;2.52;;
9485;SDS011;4781;48.776;9.200;2023-04-07T14:16:01;5.08;;;2.42;;
9485;SDS011;4781;48.776;9.200;2023-04-07T14:18:29;5.92;;;2.62;;
9485;SDS011;4781;48.776;9.200;2023-04-07T14:20:58;6.87;;;3.10;;
9485;SDS011;4781;48.776;9.200;2023-04-07T14:23:28;7.00;;;2.65;;
9485;SDS011;4781;48.776;9.200;2023-04-07T14:25:58;5.80;;;2.67;;
9485;SDS011;4781;48.776;9.200;2023-04-07T14:28:27;5.78;;;2.95;;
9485;SDS011;4781;48.776;9.200;2023-04-07T14:30:56;5.70;;;3.00;;
9485;SDS011;4781;48.776;9.200;2023-04-07T14:33:24;5.35;;;3.00;;
9485;SDS011;4781;48.776;9.200;2023-04-07T14:35:53;5.08;;;3.33;;
9485;SDS011;4781;48.776;9.200;2023-04-07T14:38:22;5.85;;;3.33;;
9485;SDS011;4781;48.776;9.200;2023-04-07T14:40:50;7.85;;;3.77;;
9485;SDS011;4781;48.776;9.200;2023-04-07T14:43:19;6.97;;;3.17;;
9485;SDS011;4781;48.776;9.200;2023-04-07T14:45:47;8.03;;;3.37;;
9485;SDS011;4781;48.776;9.200;2023-04-07T14:48:15;6.65;;;3.92;;
9485;SDS011;4781;48.776;9.200;2023-04-07T14:50:44;6.72;;;3.27;;
9485;SDS011;4781;48.776;9.200;2023-04-07T14:53:14;7.53;;;3.70;;
9485;SDS011;4781;48.776;9.200;2023-04-07T14:55:42;8.55;;;3.52;;
9485;SDS011;4781;48.776;9.200;2023-04-07T14:58:11;8.28;;;4.33;;
9485;SDS011;4781;48.776;9.200;2023-04-07T15:00:39;7.33;;;3.95;;
9485;SDS011;4781;48.776;9.200;2023-04-07T15:03:07;6.42;;;3.62;;
9485;SDS011;4781;48.776;9.200;2023-04-07T15:05:36;8.53;;;4.12;;
9485;SDS011;4781;48.776;9.200;2023-04-07T15:08:04;8.48;;;4.00;;
9485;SDS011;4781;48.776;9.200;2023-04-07T15:10:32;7.87;;;4.12;;
9485;SDS011;4781;48.776;9.200;2023-04-07T15:13:03;8.38;;;3.55;;
9485;SDS011;4781;48.776;9.200;2023-04-07T15:15:31;6.50;;;3.10;;
9485;SDS011;4781;48.776;9.200;2023-04-07T15:18:00;5.80;;;3.00;;
9485;SDS011;4781;48.776;9.200;2023-04-07T15:20:29;7.90;;;3.72;;
9485;SDS011;4781;48.776;9.200;2023-04-07T15:22:57;7.15;;;2.80;;
9485;SDS011;4781;48.776;9.200;2023-04-07T15:25:26;5.97;;;3.00;;
9485;SDS011;4781;48.776;9.200;2023-04-07T15:27:54;8.98;;;2.95;;
9485;SDS011;4781;48.776;9.200;2023-04-07T15:30:23;6.27;;;2.80;;
9485;SDS011;4781;48.776;9.200;2023-04-07T15:33:01;5.35;;;2.87;;
9485;SDS011;4781;48.776;9.200;2023-04-07T15:35:25;9.53;;;3.67;;
9485;SDS011;4781;48.776;9.200;2023-04-07T15:37:54;6.62;;;3.47;;
9485;SDS011;4781;48.776;9.200;2023-04-07T15:40:22;7.40;;;3.40;;
9485;SDS011;4781;48.776;9.200;2023-04-07T15:42:51;8.00;;;3.45;;
9485;SDS011;4781;48.776;9.200;2023-04-07T15:45:19;8.55;;;3.47;;
9485;SDS011;4781;48.776;9.200;2023-04-07T15:47:47;8.33;;;4.08;;